createdAt,value
2019-02-24T00:02:10.407Z,70.12
2019-02-24T00:04:43.976Z,73.10
2019-02-24T00:07:16.095Z,72.30
2019-02-24T00:09:48.578Z,73.40
2019-02-24T00:12:21.510Z,68.60
2019-02-24T00:14:53.862Z,70.42
2019-02-24T00:17:26.303Z,76.80
2019-02-24T00:19:58.715Z,77.27
2019-02-24T00:22:30.964Z,73.65
2019-02-24T00:25:03.392Z,73.87
2019-02-24T00:27:35.726Z,79.07
2019-02-24T00:30:09.236Z,77.35
2019-02-24T00:32:41.593Z,74.97
2019-02-24T00:35:14.124Z,79.07
2019-02-24T00:37:46.765Z,77.10
2019-02-24T00:40:19.190Z,81.40
2019-02-24T00:42:51.640Z,84.03
2019-02-24T00:45:24.165Z,76.30
2019-02-24T00:47:56.627Z,74.85
2019-02-24T00:50:28.742Z,70.90
2019-02-24T00:53:01.303Z,71.55
2019-02-24T00:55:33.860Z,73.72
2019-02-24T00:58:06.400Z,73.95
2019-02-24T01:00:38.644Z,73.25
2019-02-24T01:03:10.922Z,69.35
2019-02-24T01:05:44.132Z,70.12
2019-02-24T01:08:16.538Z,69.67
2019-02-24T01:10:49.090Z,70.28
2019-02-24T01:13:22.390Z,71.53
2019-02-24T01:15:55.482Z,71.02
2019-02-24T01:18:28.080Z,69.65
2019-02-24T01:21:01.818Z,68.87
2019-02-24T01:23:34.172Z,68.50
2019-02-24T01:26:06.561Z,68.25
2019-02-24T01:28:39.243Z,66.07
2019-02-24T01:31:11.812Z,69.27
2019-02-24T01:33:44.354Z,68.83
2019-02-24T01:36:16.762Z,69.90
2019-02-24T01:38:49.385Z,72.05
2019-02-24T01:41:21.976Z,70.92
2019-02-24T01:43:54.732Z,71.87
2019-02-24T01:46:27.019Z,68.57
2019-02-24T01:48:59.459Z,70.32
2019-02-24T01:51:31.833Z,67.97
2019-02-24T01:54:04.206Z,68.47
2019-02-24T01:56:36.716Z,69.67
2019-02-24T01:59:09.282Z,70.08
2019-02-24T02:01:41.641Z,68.72
2019-02-24T02:04:14.267Z,69.65
2019-02-24T02:06:46.911Z,68.57
2019-02-24T02:09:19.569Z,70.10
2019-02-24T02:11:52.305Z,69.97
2019-02-24T02:14:24.847Z,68.02
2019-02-24T02:16:57.475Z,67.47
2019-02-24T02:19:30.029Z,66.90
2019-02-24T02:22:02.816Z,68.07
2019-02-24T02:24:35.275Z,67.65
2019-02-24T02:27:08.486Z,64.27
2019-02-24T02:29:41.051Z,65.52
2019-02-24T02:32:13.673Z,64.65
2019-02-24T02:34:45.888Z,62.35
2019-02-24T02:37:18.388Z,61.58
2019-02-24T02:39:51.040Z,59.67
2019-02-24T02:42:23.713Z,59.88
2019-02-24T02:44:55.952Z,60.55
2019-02-24T02:47:28.082Z,62.17
2019-02-24T02:50:01.166Z,61.15
2019-02-24T02:52:33.800Z,60.70
2019-02-24T02:55:07.710Z,60.00
2019-02-24T02:57:40.251Z,63.05
2019-02-24T03:00:15.585Z,60.20
2019-02-24T03:02:48.462Z,61.40
2019-02-24T03:05:20.938Z,60.38
2019-02-24T03:07:54.438Z,58.83
2019-02-24T03:10:26.813Z,61.28
2019-02-24T03:12:59.217Z,58.63
2019-02-24T03:15:31.807Z,66.80
2019-02-24T03:18:03.917Z,64.97
2019-02-24T03:20:36.050Z,61.08
2019-02-24T03:23:08.504Z,60.10
2019-02-24T03:25:41.059Z,60.23
2019-02-24T03:28:13.586Z,61.18
2019-02-24T03:30:47.367Z,61.23
2019-02-24T03:33:19.677Z,59.27
2019-02-24T03:35:51.965Z,58.30
2019-02-24T03:38:24.531Z,57.13
2019-02-24T03:40:56.735Z,58.05
2019-02-24T03:43:29.205Z,56.85
2019-02-24T03:46:01.464Z,57.13
2019-02-24T03:48:33.600Z,60.43
2019-02-24T03:51:06.301Z,57.75
2019-02-24T03:53:38.442Z,56.25
2019-02-24T03:56:11.855Z,56.42
2019-02-24T03:58:44.162Z,55.08
2019-02-24T04:01:16.469Z,53.70
2019-02-24T04:03:49.132Z,56.92
2019-02-24T04:06:21.444Z,53.78
2019-02-24T04:08:53.996Z,54.80
2019-02-24T04:11:26.287Z,54.20
2019-02-24T04:13:59.011Z,53.48
2019-02-24T04:16:31.503Z,51.80
2019-02-24T04:19:03.777Z,51.77
2019-02-24T04:21:36.037Z,52.58
2019-02-24T04:24:08.777Z,51.73
2019-02-24T04:26:41.258Z,51.60
2019-02-24T04:29:13.988Z,50.78
2019-02-24T04:31:46.254Z,51.33
2019-02-24T04:34:18.947Z,62.98
2019-02-24T04:36:51.307Z,51.70
2019-02-24T04:39:24.046Z,52.38
2019-02-24T04:41:58.404Z,51.30
2019-02-24T04:44:30.782Z,50.85
2019-02-24T04:47:03.042Z,50.55
2019-02-24T04:49:35.381Z,49.83
2019-02-24T04:52:08.765Z,49.27
2019-02-24T04:54:41.432Z,48.50
2019-02-24T04:57:14.263Z,47.65
2019-02-24T04:59:46.613Z,46.88
2019-02-24T05:02:19.031Z,45.35
2019-02-24T05:04:52.074Z,44.55
2019-02-24T05:07:24.322Z,44.18
2019-02-24T05:09:56.468Z,44.58
2019-02-24T05:12:28.785Z,45.40
2019-02-24T05:15:02.491Z,45.95
2019-02-24T05:17:35.870Z,43.63
2019-02-24T05:20:09.968Z,43.63
2019-02-24T05:22:42.677Z,45.58
2019-02-24T05:25:15.359Z,43.55
2019-02-24T05:27:48.129Z,42.93
2019-02-24T05:30:20.586Z,42.35
2019-02-24T05:32:52.715Z,44.45
2019-02-24T05:35:25.160Z,43.52
2019-02-24T05:37:57.653Z,45.28
2019-02-24T05:40:29.812Z,44.90
2019-02-24T05:43:03.043Z,44.20
2019-02-24T05:45:35.280Z,46.88
2019-02-24T05:48:07.634Z,43.52
2019-02-24T05:50:39.822Z,42.48
2019-02-24T05:53:12.482Z,43.02
2019-02-24T05:55:45.143Z,43.05
2019-02-24T05:58:17.857Z,43.17
2019-02-24T06:00:50.618Z,42.17
2019-02-24T06:03:23.502Z,39.95
2019-02-24T06:05:56.814Z,38.80
2019-02-24T06:08:29.069Z,36.55
2019-02-24T06:11:01.710Z,37.25
2019-02-24T06:13:33.886Z,37.30
2019-02-24T06:16:06.129Z,36.35
2019-02-24T06:18:38.298Z,36.17
2019-02-24T06:21:10.715Z,34.20
2019-02-24T06:23:42.963Z,35.05
2019-02-24T06:26:15.515Z,33.15
2019-02-24T06:28:47.764Z,33.35
2019-02-24T06:31:19.931Z,33.70
2019-02-24T06:33:52.563Z,33.45
2019-02-24T06:36:24.793Z,33.65
2019-02-24T06:38:57.116Z,32.88
2019-02-24T06:41:29.589Z,33.45
2019-02-24T06:44:02.331Z,34.13
2019-02-24T06:46:34.973Z,34.05
2019-02-24T06:49:07.153Z,34.83
2019-02-24T06:51:39.468Z,35.70
2019-02-24T06:54:11.779Z,35.17
2019-02-24T06:56:44.486Z,34.65
2019-02-24T06:59:16.727Z,34.90
2019-02-24T07:01:49.063Z,35.68
2019-02-24T07:04:21.899Z,32.23
2019-02-24T07:06:54.312Z,34.40
2019-02-24T07:09:26.631Z,33.40
2019-02-24T07:11:59.756Z,34.50
2019-02-24T07:14:32.032Z,33.73
2019-02-24T07:17:04.311Z,34.88
2019-02-24T07:19:36.840Z,35.60
2019-02-24T07:22:09.844Z,35.55
2019-02-24T07:24:42.346Z,34.38
2019-02-24T07:27:14.618Z,33.88
2019-02-24T07:29:46.770Z,33.83
2019-02-24T07:32:19.069Z,33.38
2019-02-24T07:34:51.400Z,32.53
2019-02-24T07:37:23.902Z,33.73
2019-02-24T07:39:56.122Z,30.57
2019-02-24T07:42:28.563Z,29.98
2019-02-24T07:45:01.992Z,29.48
2019-02-24T07:47:34.554Z,27.48
2019-02-24T07:50:09.155Z,27.40
2019-02-24T07:52:41.632Z,29.30
2019-02-24T07:55:14.765Z,29.40
2019-02-24T07:57:47.675Z,30.15
2019-02-24T08:00:19.940Z,30.85
2019-02-24T08:02:52.359Z,30.50
2019-02-24T08:05:25.600Z,30.50
2019-02-24T08:07:58.017Z,35.78
2019-02-24T08:10:30.507Z,30.25
2019-02-24T08:13:02.749Z,29.20
2019-02-24T08:15:36.219Z,28.95
2019-02-24T08:18:08.380Z,30.27
2019-02-24T08:20:40.889Z,28.75
2019-02-24T08:23:13.823Z,26.60
2019-02-24T08:25:46.202Z,27.30
2019-02-24T08:28:19.720Z,27.40
2019-02-24T08:30:52.124Z,28.05
2019-02-24T08:33:24.352Z,28.05
2019-02-24T08:35:56.949Z,27.10
2019-02-24T08:38:29.263Z,27.73
2019-02-24T08:41:01.621Z,27.35
2019-02-24T08:43:33.859Z,27.22
2019-02-24T08:46:07.959Z,27.67
2019-02-24T08:48:40.356Z,24.95
2019-02-24T08:51:12.855Z,24.75
2019-02-24T08:53:45.977Z,27.15
2019-02-24T08:56:18.417Z,26.37
2019-02-24T08:58:51.121Z,26.57
2019-02-24T09:01:23.515Z,27.40
2019-02-24T09:03:55.715Z,26.35
2019-02-24T09:06:28.168Z,26.30
2019-02-24T09:08:59.232Z,26.17
2019-02-24T09:11:31.497Z,25.37
2019-02-24T09:14:03.665Z,24.80
2019-02-24T09:16:36.064Z,26.70
2019-02-24T09:19:08.489Z,29.15
2019-02-24T09:21:40.750Z,26.37
2019-02-24T09:24:13.253Z,27.85
2019-02-24T09:26:45.873Z,25.37
2019-02-24T09:29:18.183Z,25.88
2019-02-24T09:31:50.562Z,25.25
2019-02-24T09:34:22.879Z,24.72
2019-02-24T09:36:55.794Z,24.35
2019-02-24T09:39:28.121Z,24.00
2019-02-24T09:42:00.678Z,24.27
2019-02-24T09:44:33.501Z,24.02
2019-02-24T09:47:05.840Z,24.07
2019-02-24T09:49:38.344Z,24.05
2019-02-24T09:52:10.628Z,25.08
2019-02-24T09:54:43.032Z,25.15
2019-02-24T09:57:15.422Z,24.35
2019-02-24T09:59:47.676Z,24.23
2019-02-24T10:02:20.026Z,23.92
2019-02-24T10:04:52.674Z,24.92
2019-02-24T10:07:25.380Z,24.80
2019-02-24T10:09:57.646Z,24.45
2019-02-24T10:12:30.361Z,24.10
2019-02-24T10:15:02.936Z,24.75
2019-02-24T10:17:36.112Z,22.73
2019-02-24T10:20:11.162Z,24.37
2019-02-24T10:22:43.464Z,24.37
2019-02-24T10:25:16.122Z,23.70
2019-02-24T10:27:48.661Z,24.82
2019-02-24T10:30:21.448Z,23.77
2019-02-24T10:32:53.831Z,23.50
2019-02-24T10:35:26.382Z,24.20
2019-02-24T10:37:58.798Z,24.43
2019-02-24T10:40:31.226Z,25.10
2019-02-24T10:43:04.160Z,25.10
2019-02-24T10:45:36.732Z,25.77
2019-02-24T10:48:14.039Z,26.00
2019-02-24T10:50:43.221Z,26.65
2019-02-24T10:53:15.689Z,27.32
2019-02-24T10:55:48.130Z,25.48
2019-02-24T10:58:21.282Z,27.22
2019-02-24T11:00:53.788Z,27.35
2019-02-24T11:03:26.014Z,27.40
2019-02-24T11:05:58.591Z,34.78
2019-02-24T11:08:31.307Z,31.15
2019-02-24T11:11:04.040Z,30.80
2019-02-24T11:13:36.480Z,29.30
2019-02-24T11:16:09.844Z,29.25
2019-02-24T11:18:42.242Z,32.63
2019-02-24T11:21:14.488Z,33.92
2019-02-24T11:23:47.388Z,34.65
2019-02-24T11:26:19.826Z,33.33
2019-02-24T11:28:52.746Z,36.53
2019-02-24T11:31:25.196Z,33.55
2019-02-24T11:33:57.585Z,39.25
2019-02-24T11:36:29.969Z,35.95
2019-02-24T11:39:02.854Z,36.50
2019-02-24T11:41:36.824Z,36.68
2019-02-24T11:44:09.400Z,36.98
2019-02-24T11:46:42.073Z,43.10
2019-02-24T11:49:14.484Z,40.38
2019-02-24T11:51:46.836Z,40.90
2019-02-24T11:54:19.361Z,40.48
2019-02-24T11:56:51.649Z,41.02
2019-02-24T11:59:24.183Z,56.28
2019-02-24T12:01:56.395Z,96.70
2019-02-24T12:04:28.815Z,132.03
2019-02-24T12:07:01.014Z,44.25
2019-02-24T12:09:34.754Z,35.88
2019-02-24T12:12:06.987Z,41.45
2019-02-24T12:14:39.265Z,49.03
2019-02-24T12:17:11.495Z,41.70
2019-02-24T12:19:43.982Z,40.50
2019-02-24T12:22:16.629Z,43.95
2019-02-24T12:24:49.019Z,41.95
2019-02-24T12:27:21.263Z,43.33
2019-02-24T12:29:53.552Z,49.55
2019-02-24T12:32:25.860Z,48.75
2019-02-24T12:34:58.209Z,47.40
2019-02-24T12:37:30.454Z,55.10
2019-02-24T12:40:02.603Z,69.30
2019-02-24T12:42:35.385Z,73.10
2019-02-24T12:45:11.019Z,71.85
2019-02-24T12:47:43.396Z,71.20
2019-02-24T12:50:18.449Z,65.87
